createdAt,value
2022-12-20T00:02:52.273Z,120.6
2022-12-20T00:05:54.194Z,110.7
2022-12-20T00:08:56.168Z,136.5
2022-12-20T00:11:58.117Z,174.6
2022-12-20T00:15:00.107Z,122.2
2022-12-20T00:18:02.123Z,130.3
2022-12-20T00:21:04.015Z,147.3
2022-12-20T00:24:06.001Z,127.7
2022-12-20T00:27:07.975Z,131.7
2022-12-20T00:30:09.920Z,118
2022-12-20T00:33:11.915Z,128.6
2022-12-20T00:36:13.884Z,138.2
2022-12-20T00:39:15.833Z,115.8
2022-12-20T00:42:17.807Z,203.9
2022-12-20T00:45:19.751Z,176.6
2022-12-20T00:48:21.708Z,227.8
2022-12-20T00:51:23.689Z,161.3
2022-12-20T00:54:25.666Z,178.1
2022-12-20T00:57:27.613Z,139.3
2022-12-20T01:00:29.598Z,151.1
2022-12-20T01:03:31.658Z,136.7
2022-12-20T01:06:33.528Z,166.3
2022-12-20T01:09:35.533Z,151.2
2022-12-20T01:12:37.447Z,185.7
2022-12-20T01:15:39.414Z,142.4
2022-12-20T01:18:41.389Z,136
2022-12-20T01:21:43.350Z,134.7
2022-12-20T01:24:45.300Z,144.8
2022-12-20T01:27:47.267Z,129.9
2022-12-20T01:30:49.216Z,179.6
2022-12-20T01:33:51.217Z,146.6
2022-12-20T01:36:53.141Z,135.5
2022-12-20T01:39:55.105Z,114.9
2022-12-20T01:42:57.063Z,113.2
2022-12-20T01:45:59.064Z,117.3
2022-12-20T01:49:00.977Z,150.1
2022-12-20T01:52:02.935Z,169.9
2022-12-20T01:55:04.889Z,139.6
2022-12-20T01:58:06.862Z,146.8
2022-12-20T02:01:08.910Z,131.8
2022-12-20T02:04:10.775Z,162.1
2022-12-20T02:07:12.739Z,156
2022-12-20T02:10:14.711Z,122.7
2022-12-20T02:13:16.657Z,191.4
2022-12-20T02:16:18.688Z,144.3
2022-12-20T02:19:20.620Z,184.9
2022-12-20T02:22:22.552Z,130.3
2022-12-20T02:25:24.511Z,139.8
2022-12-20T02:28:26.495Z,147.9
2022-12-20T02:31:28.516Z,168.5
2022-12-20T02:34:30.408Z,134.7
2022-12-20T02:37:32.376Z,167.6
2022-12-20T02:40:34.335Z,139.2
2022-12-20T02:43:36.310Z,156
2022-12-20T02:46:38.248Z,197.9
2022-12-20T02:49:40.210Z,131
2022-12-20T02:52:42.809Z,165.8
2022-12-20T02:55:44.129Z,139.4
2022-12-20T02:58:46.083Z,126.5
2022-12-20T03:01:48.151Z,127.1
2022-12-20T03:04:50.060Z,181.1
2022-12-20T03:07:52.025Z,115.8
2022-12-20T03:10:53.981Z,163.8
2022-12-20T03:13:55.921Z,119.3
2022-12-20T03:16:57.935Z,181.8
2022-12-20T03:19:59.864Z,196.8
2022-12-20T03:23:01.829Z,185.8
2022-12-20T03:26:03.784Z,144.4
2022-12-20T03:29:05.748Z,155.7
2022-12-20T03:32:07.708Z,141.7
2022-12-20T03:35:09.655Z,140.4
2022-12-20T03:38:11.624Z,120.4
2022-12-20T03:41:13.570Z,130.2
2022-12-20T03:44:15.621Z,109.1
2022-12-20T03:47:17.494Z,108.5
2022-12-20T03:50:19.447Z,108
2022-12-20T03:53:21.423Z,154.9
2022-12-20T03:56:23.365Z,151.6
2022-12-20T03:59:25.321Z,143.4
2022-12-20T04:02:27.403Z,126.4
2022-12-20T04:05:29.264Z,123
2022-12-20T04:08:31.252Z,150.1
2022-12-20T04:11:33.261Z,119.2
2022-12-20T04:14:35.223Z,127.1
2022-12-20T04:17:37.175Z,171.9
2022-12-20T04:20:39.187Z,130.5
2022-12-20T04:23:41.102Z,121.1
2022-12-20T04:26:43.086Z,168.3
2022-12-20T04:29:45.073Z,174.7
2022-12-20T04:32:47.023Z,168.6
2022-12-20T04:35:48.988Z,150.1
2022-12-20T04:38:50.989Z,142.8
2022-12-20T04:41:52.944Z,213.5
2022-12-20T04:44:54.891Z,158.8
2022-12-20T04:47:56.871Z,142
2022-12-20T04:50:58.848Z,145.3
2022-12-20T04:54:00.796Z,179.1
2022-12-20T04:57:02.768Z,158.6
2022-12-20T05:00:04.700Z,142
2022-12-20T05:03:06.849Z,141.6
2022-12-20T05:06:08.621Z,154.3
2022-12-20T05:09:10.585Z,139.8
2022-12-20T05:12:12.551Z,145.5
2022-12-20T05:15:14.518Z,155.3
2022-12-20T05:18:16.476Z,138.5
2022-12-20T05:21:18.446Z,122.9
2022-12-20T05:24:20.415Z,145.1
2022-12-20T05:27:22.368Z,159.9
2022-12-20T05:30:24.327Z,129.3
2022-12-20T05:33:30.497Z,148.9
2022-12-20T05:36:28.273Z,118.3
2022-12-20T05:39:30.213Z,179.9
2022-12-20T05:42:32.171Z,134.4
2022-12-20T05:45:34.117Z,134.8
2022-12-20T05:48:36.104Z,112.8
2022-12-20T05:51:38.044Z,151.1
2022-12-20T05:54:40.027Z,131.8
2022-12-20T05:57:41.977Z,172.7
2022-12-20T06:00:43.942Z,179.9
2022-12-20T06:03:46.069Z,202.4
2022-12-20T06:06:47.859Z,174.7
2022-12-20T06:09:49.814Z,188.7
2022-12-20T06:12:51.788Z,148
2022-12-20T06:15:53.918Z,178.5
2022-12-20T06:18:55.745Z,155.1
2022-12-20T06:21:57.689Z,171.3
2022-12-20T06:24:59.642Z,162.1
2022-12-20T06:28:01.638Z,144.1
2022-12-20T06:31:03.561Z,132.1
2022-12-20T06:34:05.531Z,148.5
2022-12-20T06:37:07.466Z,138.5
2022-12-20T06:40:09.457Z,151.1
2022-12-20T06:43:11.419Z,153.4
2022-12-20T06:46:13.411Z,139.2
2022-12-20T06:49:15.359Z,126.3
2022-12-20T06:52:17.300Z,135.5
2022-12-20T06:55:19.264Z,167.6
2022-12-20T06:58:21.233Z,156.2
2022-12-20T07:01:23.322Z,143
2022-12-20T07:04:25.152Z,173.2
2022-12-20T07:07:27.106Z,169.9
2022-12-20T07:10:29.060Z,131.9
2022-12-20T07:13:31.019Z,180
2022-12-20T07:16:33.119Z,165.3
2022-12-20T07:19:34.955Z,171.3
2022-12-20T07:22:36.888Z,156.6
2022-12-20T07:25:38.857Z,143.2
2022-12-20T07:28:40.821Z,125.3
2022-12-20T07:31:42.826Z,123.6
2022-12-20T07:34:44.740Z,122.6
2022-12-20T07:37:46.698Z,118.3
2022-12-20T07:40:48.673Z,139.5
2022-12-20T07:43:50.629Z,109
2022-12-20T07:46:52.597Z,141.5
2022-12-20T07:49:54.597Z,113.6
2022-12-20T07:52:56.515Z,147.1
2022-12-20T07:55:58.494Z,134.1
2022-12-20T07:59:00.460Z,133.2
2022-12-20T08:02:04.467Z,121.6
2022-12-20T08:05:04.364Z,111.7
2022-12-20T08:08:06.342Z,101.5
2022-12-20T08:11:08.280Z,90.4
2022-12-20T08:14:10.231Z,96.8
2022-12-20T08:17:12.276Z,120.6
2022-12-20T08:20:14.163Z,117.7
2022-12-20T08:23:16.154Z,114.9
2022-12-20T08:26:18.109Z,138.9
2022-12-20T08:29:20.042Z,133.9
2022-12-20T08:32:22.018Z,144.3
2022-12-20T08:35:23.985Z,124.6
2022-12-20T08:38:25.974Z,101.1
2022-12-20T08:41:27.921Z,91.7
2022-12-20T08:44:29.876Z,94.3
2022-12-20T08:47:31.877Z,94.8
2022-12-20T08:50:33.850Z,97.6
2022-12-20T08:53:35.817Z,85.3
2022-12-20T08:56:37.927Z,89.8
2022-12-20T08:59:39.702Z,129.1
2022-12-20T09:02:41.853Z,113.9
2022-12-20T09:05:43.652Z,98.4
2022-12-20T09:08:45.608Z,115.5
2022-12-20T09:11:47.592Z,90.3
2022-12-20T09:14:49.522Z,77.1
2022-12-20T09:17:51.491Z,84.4
2022-12-20T09:20:53.454Z,68.5
2022-12-20T09:23:55.411Z,70.6
2022-12-20T09:26:57.383Z,82.3
2022-12-20T09:29:59.363Z,68.9
2022-12-20T09:33:07.119Z,70.6
2022-12-20T09:36:03.256Z,71.5
2022-12-20T09:39:05.255Z,65
2022-12-20T09:42:07.191Z,70
2022-12-20T09:45:09.151Z,71.5
2022-12-20T09:48:11.097Z,78.3
2022-12-20T09:51:13.058Z,65.3
2022-12-20T09:54:15.000Z,93.9
2022-12-20T09:57:16.969Z,99.9
2022-12-20T10:00:18.955Z,73.7
2022-12-20T10:03:21.130Z,62.9
2022-12-20T10:06:22.907Z,66.6
2022-12-20T10:09:24.869Z,84.8
2022-12-20T10:12:26.831Z,82.6
2022-12-20T10:15:28.778Z,66.4
2022-12-20T10:18:30.745Z,58.9
2022-12-20T10:21:32.705Z,59.7
2022-12-20T10:24:34.655Z,90.4
2022-12-20T10:27:36.633Z,70.9
2022-12-20T10:30:38.568Z,79.3
2022-12-20T10:33:40.575Z,70
2022-12-20T10:36:42.519Z,95.2
2022-12-20T10:39:44.498Z,92.4
2022-12-20T10:42:46.454Z,72.2
2022-12-20T10:45:48.412Z,76.7
2022-12-20T10:48:50.404Z,98.8
2022-12-20T10:51:52.358Z,72.5
2022-12-20T10:54:54.329Z,99.8
2022-12-20T10:57:56.341Z,100.3
2022-12-20T11:00:58.297Z,69
2022-12-20T11:04:00.311Z,69.3
2022-12-20T11:07:02.233Z,95.3
2022-12-20T11:10:04.256Z,91.4
2022-12-20T11:13:06.294Z,90.7
2022-12-20T11:16:08.282Z,71.1
2022-12-20T11:19:10.136Z,68.6
2022-12-20T11:22:12.111Z,60.6
2022-12-20T11:25:14.051Z,60.9
2022-12-20T11:28:16.005Z,57.1
2022-12-20T11:31:18.023Z,65
2022-12-20T11:34:19.944Z,61.3
2022-12-20T11:37:21.897Z,68.4
2022-12-20T11:40:23.877Z,56.5
2022-12-20T11:43:25.825Z,55.6
2022-12-20T11:46:27.808Z,60.1
2022-12-20T11:49:29.770Z,74.6
2022-12-20T11:52:31.702Z,55.3
2022-12-20T11:55:33.658Z,79.5
2022-12-20T11:58:35.636Z,60.9
2022-12-20T12:01:37.686Z,74.8
2022-12-20T12:04:39.580Z,57
2022-12-20T12:07:41.541Z,60
2022-12-20T12:10:43.506Z,61.2
2022-12-20T12:13:45.515Z,59.6
2022-12-20T12:16:47.631Z,72.9
2022-12-20T12:19:49.477Z,65.2
2022-12-20T12:22:51.402Z,78.7
2022-12-20T12:25:53.366Z,72.6
2022-12-20T12:28:55.327Z,73.5
2022-12-20T12:31:57.368Z,67.7
2022-12-20T12:34:59.233Z,66.6
2022-12-20T12:38:01.214Z,59
2022-12-20T12:41:03.164Z,61.1
2022-12-20T12:44:05.125Z,53.3
2022-12-20T12:47:07.097Z,55.5
2022-12-20T12:50:09.129Z,49.3
2022-12-20T12:53:11.020Z,56.5
2022-12-20T12:56:41.898Z,55.2
2022-12-20T12:59:14.938Z,52.9
2022-12-20T13:02:17.156Z,48
2022-12-20T13:05:24.038Z,60.4
2022-12-20T13:08:20.884Z,52.2
2022-12-20T13:11:22.814Z,48.8
2022-12-20T13:14:24.795Z,41.6
2022-12-20T13:17:26.854Z,54.7
2022-12-20T13:20:28.713Z,42.3
2022-12-20T13:23:30.666Z,44.8
2022-12-20T13:26:32.646Z,38.9
2022-12-20T13:29:34.603Z,35.1
2022-12-20T13:32:36.561Z,36.2
2022-12-20T13:35:38.537Z,36.7
2022-12-20T13:38:40.492Z,35.9
2022-12-20T13:41:42.464Z,37.9
2022-12-20T13:44:44.419Z,35.3
2022-12-20T13:47:46.625Z,41.5
2022-12-20T13:50:48.589Z,39
2022-12-20T13:53:50.545Z,37
2022-12-20T13:56:52.500Z,44.9
2022-12-20T13:59:57.313Z,47.1
2022-12-20T14:02:56.629Z,55.8
2022-12-20T14:05:58.399Z,43.7
2022-12-20T14:09:00.357Z,41.6
2022-12-20T14:12:02.348Z,48
2022-12-20T14:15:04.332Z,47.6
2022-12-20T14:18:06.290Z,39.5
2022-12-20T14:21:08.276Z,35.7
2022-12-20T14:24:10.180Z,41.1
2022-12-20T14:27:12.134Z,35
2022-12-20T14:30:14.081Z,34.4
2022-12-20T14:33:16.093Z,41.8
2022-12-20T14:36:18.019Z,45.6
2022-12-20T14:39:19.987Z,40.2
2022-12-20T14:42:22.036Z,44
2022-12-20T14:45:24.006Z,45.7
2022-12-20T14:48:25.959Z,40.6
2022-12-20T14:51:27.923Z,48.8
2022-12-20T14:55:06.116Z,49.3
2022-12-20T14:57:31.938Z,56.6
2022-12-20T15:00:33.828Z,54.3
2022-12-20T15:03:35.967Z,48.6
2022-12-20T15:06:37.763Z,47.6
2022-12-20T15:09:39.717Z,42.7
2022-12-20T15:12:42.493Z,57.4
2022-12-20T15:15:43.692Z,48.6
2022-12-20T15:18:45.612Z,57.6
2022-12-20T15:21:47.584Z,50.5
2022-12-20T15:24:49.544Z,51.4
2022-12-20T15:27:51.552Z,57.4
2022-12-20T15:30:53.523Z,46.9
2022-12-20T15:33:55.413Z,44
2022-12-20T15:36:57.384Z,43.2
2022-12-20T15:39:59.354Z,46.7
2022-12-20T15:43:01.310Z,41.8
2022-12-20T15:46:03.359Z,63.4
2022-12-20T15:49:05.217Z,64.1
2022-12-20T15:52:07.187Z,45.6
2022-12-20T15:55:09.140Z,66.4
2022-12-20T15:58:11.105Z,67.5
2022-12-20T16:01:13.124Z,53.7
2022-12-20T16:04:15.081Z,61
2022-12-20T16:07:17.009Z,54.5
2022-12-20T16:10:18.944Z,52.8
2022-12-20T16:13:21.283Z,53.8
2022-12-20T16:16:22.920Z,52.4
2022-12-20T16:19:24.831Z,52.1
2022-12-20T16:22:26.931Z,56.9
2022-12-20T16:25:28.777Z,54.3
2022-12-20T16:28:30.762Z,46.2
2022-12-20T16:31:32.805Z,64.7
2022-12-20T16:34:34.680Z,48.2
2022-12-20T16:37:39.054Z,45.1
2022-12-20T16:40:38.623Z,57.1
2022-12-20T16:43:40.579Z,93.4
2022-12-20T16:46:42.620Z,64.7
2022-12-20T16:49:49.522Z,62
2022-12-20T16:52:46.472Z,62.4
2022-12-20T16:55:48.430Z,55.9
2022-12-20T16:59:17.647Z,61.3
2022-12-20T17:01:52.629Z,75
2022-12-20T17:04:54.342Z,64.4
2022-12-20T17:07:56.300Z,57.5
2022-12-20T17:10:58.273Z,59.2
2022-12-20T17:14:00.225Z,57.4
2022-12-20T17:17:02.200Z,68.7
2022-12-20T17:20:04.160Z,59.5
2022-12-20T17:23:06.130Z,64.9
2022-12-20T17:26:08.081Z,89.1
2022-12-20T17:29:10.058Z,63.7
2022-12-20T17:32:12.077Z,60.8
2022-12-20T17:35:13.965Z,68.2
2022-12-20T17:38:15.943Z,61.7
2022-12-20T17:41:17.934Z,70.2
2022-12-20T17:44:19.879Z,65.8
2022-12-20T17:47:21.822Z,58
2022-12-20T17:50:23.791Z,54.6
2022-12-20T17:53:25.756Z,51.3
2022-12-20T17:56:27.723Z,61.6
2022-12-20T17:59:29.688Z,52.7
2022-12-20T18:02:31.722Z,82.2
2022-12-20T18:05:33.632Z,59.7
2022-12-20T18:08:35.578Z,58.8
2022-12-20T18:11:37.560Z,59
2022-12-20T18:14:39.523Z,59.8
2022-12-20T18:17:41.493Z,59.2
2022-12-20T18:20:43.450Z,77.5
2022-12-20T18:23:45.413Z,73.8
2022-12-20T18:26:47.368Z,66.8
2022-12-20T18:29:49.353Z,61.2
2022-12-20T18:32:51.302Z,53.9
2022-12-20T18:35:53.271Z,55.2
2022-12-20T18:38:55.243Z,79.8
2022-12-20T18:41:57.202Z,70.1
2022-12-20T18:44:59.167Z,72.6
2022-12-20T18:48:01.159Z,86.3
2022-12-20T18:51:03.122Z,68.1
2022-12-20T18:54:05.067Z,77.4
2022-12-20T18:57:07.043Z,101.6
2022-12-20T19:00:08.994Z,80.3
2022-12-20T19:03:11.162Z,71.1
2022-12-20T19:06:12.941Z,76.1
2022-12-20T19:09:14.887Z,75.1
2022-12-20T19:12:16.852Z,111.5
2022-12-20T19:15:18.812Z,92.8
2022-12-20T19:18:20.768Z,89.1
2022-12-20T19:21:22.740Z,104.4
2022-12-20T19:24:24.699Z,97.3
2022-12-20T19:27:26.672Z,77.1
2022-12-20T19:30:28.767Z,74.8
2022-12-20T19:33:30.611Z,103.1
2022-12-20T19:36:32.619Z,108.1
2022-12-20T19:39:34.581Z,98
2022-12-20T19:42:36.545Z,85.5
2022-12-20T19:45:38.596Z,78.6
2022-12-20T19:48:40.462Z,105.3
2022-12-20T19:51:42.417Z,105.7
2022-12-20T19:54:44.405Z,83.1
2022-12-20T19:57:46.347Z,100.5
2022-12-20T20:00:48.320Z,110.7
2022-12-20T20:03:50.364Z,102.4
2022-12-20T20:06:52.239Z,90.6
2022-12-20T20:09:54.224Z,89.3
2022-12-20T20:12:56.200Z,92.9
2022-12-20T20:15:58.220Z,90.9
2022-12-20T20:19:00.224Z,81.2
2022-12-20T20:22:02.145Z,127
2022-12-20T20:25:04.098Z,102
2022-12-20T20:28:06.071Z,134.9
2022-12-20T20:31:08.070Z,99.6
2022-12-20T20:34:09.990Z,129.5
2022-12-20T20:37:11.951Z,130.2
2022-12-20T20:40:13.917Z,108.2
2022-12-20T20:43:15.866Z,111
2022-12-20T20:46:17.894Z,133.4
2022-12-20T20:49:19.796Z,105.4
2022-12-20T20:52:21.765Z,112.1
2022-12-20T20:55:23.710Z,97
2022-12-20T20:58:25.687Z,87.5
2022-12-20T21:01:27.797Z,120.7
2022-12-20T21:04:29.614Z,112.8
2022-12-20T21:07:31.573Z,111.6
2022-12-20T21:10:33.632Z,102.6
2022-12-20T21:13:35.568Z,120.4
2022-12-20T21:16:37.638Z,97.5
2022-12-20T21:19:39.486Z,97.6
2022-12-20T21:22:41.466Z,108
2022-12-20T21:25:43.411Z,105.8
2022-12-20T21:28:45.369Z,101.8
2022-12-20T21:31:47.385Z,118.3
2022-12-20T21:34:49.282Z,120.4
2022-12-20T21:37:51.278Z,147.4
2022-12-20T21:40:53.220Z,97.1
2022-12-20T21:43:55.168Z,117.8
2022-12-20T21:46:57.306Z,118.5
2022-12-20T21:49:59.113Z,109.6
2022-12-20T21:53:01.087Z,128
2022-12-20T21:56:03.051Z,109.8
2022-12-20T21:59:05.016Z,122.7
2022-12-20T22:02:07.229Z,112.3
2022-12-20T22:05:08.970Z,94.9
2022-12-20T22:08:10.907Z,103.9
2022-12-20T22:11:12.862Z,95.4
2022-12-20T22:14:14.806Z,84.5
2022-12-20T22:17:16.773Z,105.6
2022-12-20T22:20:18.823Z,117.8
2022-12-20T22:23:20.795Z,94.1
2022-12-20T22:26:22.740Z,112.9
2022-12-20T22:29:24.697Z,103.1
2022-12-20T22:32:26.688Z,96.2
2022-12-20T22:35:28.631Z,90.2
2022-12-20T22:38:30.575Z,117.8
2022-12-20T22:41:32.659Z,97.8
2022-12-20T22:44:34.629Z,158.2
2022-12-20T22:47:36.582Z,91.8
2022-12-20T22:50:38.674Z,98.9
2022-12-20T22:53:40.527Z,111.5
2022-12-20T22:56:42.484Z,128
2022-12-20T22:59:44.451Z,117.3
2022-12-20T23:02:46.565Z,104.1
2022-12-20T23:05:48.372Z,111.8
2022-12-20T23:08:50.354Z,122.6
2022-12-20T23:11:52.312Z,111.9
2022-12-20T23:14:57.489Z,124.6
2022-12-20T23:17:56.243Z,120.1
2022-12-20T23:20:58.200Z,119.4
2022-12-20T23:24:00.154Z,124.7
2022-12-20T23:27:02.112Z,109.8
2022-12-20T23:30:04.109Z,135.7
2022-12-20T23:33:06.031Z,112.8
2022-12-20T23:36:07.993Z,117
2022-12-20T23:39:09.964Z,114.2
2022-12-20T23:42:11.932Z,120.3
2022-12-20T23:45:13.910Z,104.1
2022-12-20T23:48:15.840Z,98.4
2022-12-20T23:51:17.798Z,116.5
2022-12-20T23:54:19.751Z,92.3
2022-12-20T23:57:21.738Z,101.7
